Corcovado, Argentina
Current Conditions -  °F | °C
As of 8:00 PM on Sunday 21 Dec 2014 (Local Time) from SCAP Reporting Station
Clear Clear  
Wind Chill: 11°   Ceiling: Unl
Heat Index: 11°   Visibility: NA
Dew Point:   Wind: 8mph
Humidity: 47%   Direction: 230°SW
Pressure: 30.33"   Gusts: NA
Location:  43.46°S, 71.09°W
Report Text: SCAP 212300Z AUTO 23007KT 180V270 //// // NSC 11/M00 Q1027
Loading
Personal Weather Stations






























Interactive Weather Map New forecast layout! Learn more

10-Day Weather Forecast

Advertisements
Track Severe Weather on mobile